createdAt,value
2022-08-03T00:02:16.828Z,21.35
2022-08-03T00:06:18.560Z,21.26
2022-08-03T00:10:20.195Z,21.48
2022-08-03T00:14:21.760Z,21.56
2022-08-03T00:18:23.382Z,21.48
2022-08-03T00:22:24.905Z,21.50
2022-08-03T00:26:26.495Z,21.34
2022-08-03T00:30:30.921Z,21.10
2022-08-03T00:34:57.254Z,21.09
2022-08-03T00:38:54.520Z,20.69
2022-08-03T00:43:04.274Z,20.66
2022-08-03T00:47:05.845Z,20.58
2022-08-03T00:51:07.470Z,20.55
2022-08-03T00:55:10.210Z,20.71
2022-08-03T00:59:12.054Z,20.56
2022-08-03T01:03:16.020Z,20.45
2022-08-03T01:07:23.008Z,20.41
2022-08-03T01:12:00.266Z,20.28
2022-08-03T01:16:06.051Z,20.52
2022-08-03T01:20:10.577Z,20.31
2022-08-03T01:24:20.193Z,20.25
2022-08-03T01:28:56.755Z,20.03
2022-08-03T01:33:08.760Z,20.28
2022-08-03T01:37:12.910Z,20.16
2022-08-03T01:41:20.077Z,20.36
2022-08-03T01:45:22.586Z,20.33
2022-08-03T01:49:24.721Z,20.41
2022-08-03T01:53:28.669Z,20.25
2022-08-03T01:57:30.741Z,20.38
2022-08-03T02:02:27.972Z,20.50
2022-08-03T02:06:11.723Z,20.61
2022-08-03T02:10:34.884Z,20.38
2022-08-03T02:14:40.723Z,20.49
2022-08-03T02:18:42.287Z,20.47
2022-08-03T02:22:44.872Z,20.46
2022-08-03T02:26:46.926Z,20.22
2022-08-03T02:30:53.995Z,20.46
2022-08-03T02:34:57.885Z,20.32
2022-08-03T02:39:01.487Z,20.26
2022-08-03T02:43:08.830Z,20.25
2022-08-03T02:47:11.881Z,20.26
2022-08-03T02:51:14.648Z,20.24
2022-08-03T02:55:16.634Z,20.27
2022-08-03T02:59:19.356Z,20.21
2022-08-03T03:03:22.049Z,19.98
2022-08-03T03:07:23.833Z,20.09
2022-08-03T03:11:29.532Z,20.06
2022-08-03T03:15:35.721Z,19.96
2022-08-03T03:19:39.824Z,20.00
2022-08-03T03:23:42.016Z,19.87
2022-08-03T03:27:44.103Z,19.94
2022-08-03T03:31:51.355Z,19.93
2022-08-03T03:35:53.593Z,19.87
2022-08-03T03:39:55.181Z,19.62
2022-08-03T03:43:56.777Z,19.83
2022-08-03T03:48:00.504Z,19.70
2022-08-03T03:52:01.954Z,19.85
2022-08-03T03:56:03.678Z,19.94
2022-08-03T04:00:06.300Z,20.14
2022-08-03T04:04:26.627Z,20.33
2022-08-03T04:08:46.791Z,20.33
2022-08-03T04:12:53.016Z,20.67
2022-08-03T04:17:01.650Z,20.84
2022-08-03T04:21:05.866Z,20.77
2022-08-03T04:25:10.369Z,20.74
2022-08-03T04:29:13.669Z,22.91
2022-08-03T04:33:17.389Z,24.40
2022-08-03T04:37:35.502Z,25.70
2022-08-03T04:42:06.954Z,24.09
2022-08-03T04:46:02.466Z,25.54
2022-08-03T04:50:09.176Z,26.29
2022-08-03T04:54:13.873Z,27.52
2022-08-03T04:58:15.340Z,28.30
2022-08-03T05:02:17.162Z,26.15
2022-08-03T05:06:18.926Z,27.89
2022-08-03T05:10:23.020Z,26.48
2022-08-03T05:14:27.964Z,27.25
2022-08-03T05:18:29.854Z,27.16
2022-08-03T05:22:31.389Z,26.74
2022-08-03T05:26:32.838Z,26.07
2022-08-03T05:30:34.635Z,24.81
2022-08-03T05:34:36.300Z,24.06
2022-08-03T05:38:37.940Z,23.84
2022-08-03T05:42:39.412Z,23.98
2022-08-03T05:46:40.888Z,23.72
2022-08-03T05:50:43.003Z,23.66
2022-08-03T05:54:57.347Z,23.75
2022-08-03T05:59:11.397Z,23.72
2022-08-03T06:03:21.174Z,23.86
2022-08-03T06:07:23.876Z,24.01
2022-08-03T06:11:25.342Z,24.32
2022-08-03T06:15:26.839Z,24.76
2022-08-03T06:19:28.380Z,25.10
2022-08-03T06:23:54.702Z,25.40
2022-08-03T06:27:51.487Z,25.62
2022-08-03T06:31:53.093Z,25.75
2022-08-03T06:35:54.562Z,26.05
2022-08-03T06:39:56.067Z,26.37
2022-08-03T06:44:03.411Z,26.33
2022-08-03T06:48:07.999Z,26.40
2022-08-03T06:52:09.568Z,26.73
2022-08-03T06:56:11.137Z,26.86
2022-08-03T07:00:13.150Z,27.12
2022-08-03T07:04:14.651Z,27.15
2022-08-03T07:08:16.329Z,27.31
2022-08-03T07:12:18.165Z,27.32
2022-08-03T07:16:20.068Z,27.35
2022-08-03T07:20:21.519Z,27.77
2022-08-03T07:24:22.993Z,28.24
2022-08-03T07:28:24.411Z,28.54
2022-08-03T07:32:26.450Z,28.56
2022-08-03T07:36:29.019Z,28.64
2022-08-03T07:40:31.726Z,28.72
2022-08-03T07:44:33.555Z,28.81
2022-08-03T07:48:35.001Z,29.22
2022-08-03T07:52:49.255Z,29.51
2022-08-03T07:56:50.691Z,29.21
2022-08-03T08:00:53.169Z,29.57
2022-08-03T08:04:54.964Z,29.30
2022-08-03T08:09:01.660Z,29.59
2022-08-03T08:13:04.240Z,29.89
2022-08-03T08:17:07.393Z,29.89
2022-08-03T08:21:10.186Z,30.26
2022-08-03T08:25:11.907Z,30.13
2022-08-03T08:29:13.413Z,30.29
2022-08-03T08:33:23.556Z,30.28
2022-08-03T08:37:25.368Z,30.26
2022-08-03T08:41:32.058Z,30.63
2022-08-03T08:45:34.080Z,30.91
2022-08-03T08:49:38.361Z,30.81
2022-08-03T08:53:44.153Z,30.98
2022-08-03T08:57:49.396Z,31.01
2022-08-03T09:01:50.917Z,31.15
2022-08-03T09:05:56.140Z,31.23
2022-08-03T09:10:10.391Z,31.62
2022-08-03T09:14:36.678Z,31.71
2022-08-03T09:18:36.704Z,31.96
2022-08-03T09:23:24.703Z,31.60
2022-08-03T09:27:27.060Z,31.91
2022-08-03T09:31:32.227Z,32.22
2022-08-03T09:35:57.447Z,32.27
2022-08-03T09:39:59.400Z,32.32
2022-08-03T09:44:00.914Z,32.16
2022-08-03T09:48:22.896Z,32.51
2022-08-03T09:52:39.152Z,32.30
2022-08-03T09:56:52.515Z,32.64
2022-08-03T10:01:03.738Z,32.56
2022-08-03T10:05:08.227Z,32.32
2022-08-03T10:09:12.724Z,32.22
2022-08-03T10:13:15.619Z,32.15
2022-08-03T10:17:17.328Z,32.07
2022-08-03T10:21:20.099Z,32.37
2022-08-03T10:25:22.088Z,32.77
2022-08-03T10:29:39.644Z,32.52
2022-08-03T10:33:51.329Z,32.70
2022-08-03T10:38:04.935Z,32.85
2022-08-03T10:42:14.447Z,32.67
2022-08-03T10:46:21.121Z,33.17
2022-08-03T10:50:24.929Z,32.97
2022-08-03T10:54:35.263Z,32.71
2022-08-03T10:58:36.816Z,32.90
2022-08-03T11:03:16.066Z,32.70
2022-08-03T11:07:23.124Z,32.78
2022-08-03T11:11:26.342Z,32.41
2022-08-03T11:15:33.557Z,33.16
2022-08-03T11:19:57.227Z,32.86
2022-08-03T11:24:02.642Z,32.73
2022-08-03T11:28:27.116Z,33.08
2022-08-03T11:32:37.754Z,33.56
2022-08-03T11:37:17.817Z,33.37
2022-08-03T11:41:42.726Z,33.73
2022-08-03T11:45:57.035Z,33.75
2022-08-03T11:50:01.869Z,33.82
2022-08-03T11:54:05.788Z,34.12
2022-08-03T11:59:19.012Z,34.07
2022-08-03T12:02:28.896Z,33.59
2022-08-03T12:06:30.677Z,33.59
2022-08-03T12:10:32.436Z,33.86
2022-08-03T12:14:48.238Z,33.96
2022-08-03T12:19:02.123Z,33.61
2022-08-03T12:23:09.562Z,33.74
2022-08-03T12:27:11.201Z,34.15
2022-08-03T12:31:13.624Z,33.46
2022-08-03T12:35:24.725Z,33.71
2022-08-03T12:39:31.018Z,34.34
2022-08-03T12:43:37.582Z,34.05
2022-08-03T12:47:57.971Z,34.38
2022-08-03T12:52:04.075Z,34.59
2022-08-03T12:56:08.960Z,34.77
2022-08-03T13:00:21.514Z,34.48
2022-08-03T13:04:36.574Z,32.60
2022-08-03T13:08:38.465Z,31.92
2022-08-03T13:12:48.243Z,32.79
2022-08-03T13:16:49.827Z,31.93
2022-08-03T13:20:51.313Z,31.00
2022-08-03T13:24:58.141Z,31.49
2022-08-03T13:28:59.605Z,31.74
2022-08-03T13:33:01.203Z,32.50
2022-08-03T13:37:10.529Z,32.33
2022-08-03T13:41:15.510Z,31.97
2022-08-03T13:45:17.757Z,31.67
2022-08-03T13:49:19.572Z,31.71
2022-08-03T13:53:21.223Z,32.38
2022-08-03T13:58:06.400Z,31.41
2022-08-03T14:01:55.065Z,31.82
2022-08-03T14:05:57.352Z,32.08
2022-08-03T14:09:58.819Z,32.11
2022-08-03T14:14:00.370Z,32.05
2022-08-03T14:18:01.828Z,31.99
2022-08-03T14:22:06.622Z,31.88
2022-08-03T14:26:09.394Z,31.69
2022-08-03T14:30:11.726Z,31.93
2022-08-03T14:34:13.174Z,31.73
2022-08-03T14:38:14.924Z,32.09
2022-08-03T14:42:16.872Z,31.98
2022-08-03T14:46:18.418Z,31.97
2022-08-03T14:50:32.572Z,31.78
2022-08-03T14:54:40.860Z,31.68
2022-08-03T14:58:42.423Z,31.86
2022-08-03T15:02:43.946Z,32.32
2022-08-03T15:06:45.501Z,32.45
2022-08-03T15:10:55.714Z,33.09
2022-08-03T15:14:57.339Z,32.52
2022-08-03T15:18:58.986Z,32.71
2022-08-03T15:23:00.478Z,32.51
2022-08-03T15:27:01.985Z,32.64
2022-08-03T15:31:07.937Z,32.15
2022-08-03T15:35:09.453Z,32.59
2022-08-03T15:39:10.954Z,32.31
2022-08-03T15:43:12.557Z,32.28
2022-08-03T15:47:14.028Z,32.33
2022-08-03T15:51:15.708Z,32.79
2022-08-03T15:55:17.364Z,32.42
2022-08-03T15:59:19.852Z,32.47
2022-08-03T16:03:21.539Z,33.42
2022-08-03T16:07:41.996Z,33.36
2022-08-03T16:12:03.519Z,32.65
2022-08-03T16:16:04.981Z,32.70
